createdAt,value
2024-02-18T00:01:44.949Z,3.93
2024-02-18T00:04:14.262Z,3.78
2024-02-18T00:06:44.340Z,3.74
2024-02-18T00:09:13.449Z,3.71
2024-02-18T00:11:42.576Z,3.55
2024-02-18T00:14:11.672Z,3.62
2024-02-18T00:16:40.812Z,3.29
2024-02-18T00:19:11.230Z,3.26
2024-02-18T00:21:40.387Z,3.38
2024-02-18T00:24:09.521Z,3.79
2024-02-18T00:26:49.119Z,3.96
2024-02-18T00:29:26.824Z,3.82
2024-02-18T00:31:56.400Z,3.74
2024-02-18T00:34:26.913Z,3.43
2024-02-18T00:36:55.971Z,3.48
2024-02-18T00:39:24.956Z,3.54
2024-02-18T00:41:54.078Z,3.66
2024-02-18T00:44:24.694Z,3.65
2024-02-18T00:47:01.347Z,3.60
2024-02-18T00:49:36.496Z,3.69
2024-02-18T00:52:06.367Z,3.38
2024-02-18T00:54:35.766Z,3.55
2024-02-18T00:57:05.120Z,3.78
2024-02-18T00:59:35.103Z,6.34
2024-02-18T01:02:04.312Z,8.00
2024-02-18T01:04:33.261Z,8.47
2024-02-18T01:07:04.013Z,7.73
2024-02-18T01:09:32.982Z,7.98
2024-02-18T01:12:03.650Z,7.28
2024-02-18T01:14:32.699Z,7.11
2024-02-18T01:17:03.650Z,8.61
2024-02-18T01:19:32.744Z,9.78
2024-02-18T01:22:02.432Z,9.02
2024-02-18T01:24:31.604Z,7.85
2024-02-18T01:27:00.666Z,8.24
2024-02-18T01:29:29.759Z,7.85
2024-02-18T01:31:58.745Z,8.44
2024-02-18T01:34:27.775Z,7.71
2024-02-18T01:36:57.042Z,8.03
2024-02-18T01:39:28.131Z,6.55
2024-02-18T01:41:57.439Z,4.85
2024-02-18T01:44:27.200Z,3.97
2024-02-18T01:46:56.589Z,3.50
2024-02-18T01:49:25.865Z,3.66
2024-02-18T01:51:55.693Z,2.82
2024-02-18T01:54:27.162Z,3.03
2024-02-18T01:56:57.643Z,3.15
2024-02-18T01:59:26.753Z,2.70
2024-02-18T02:01:55.796Z,2.50
2024-02-18T02:04:25.313Z,2.69
2024-02-18T02:06:55.411Z,2.75
2024-02-18T02:09:24.592Z,2.73
2024-02-18T02:11:53.844Z,2.25
2024-02-18T02:14:24.293Z,2.55
2024-02-18T02:16:53.440Z,2.54
2024-02-18T02:19:24.331Z,2.63
2024-02-18T02:21:53.426Z,2.60
2024-02-18T02:24:22.716Z,2.27
2024-02-18T02:26:55.610Z,2.00
2024-02-18T02:29:26.335Z,2.18
2024-02-18T02:31:58.523Z,2.03
2024-02-18T02:34:29.862Z,2.21
2024-02-18T02:36:59.426Z,2.26
2024-02-18T02:39:28.492Z,1.98
2024-02-18T02:41:57.834Z,2.08
2024-02-18T02:44:28.370Z,2.06
2024-02-18T02:46:57.355Z,1.88
2024-02-18T02:49:26.562Z,2.07
2024-02-18T02:51:55.605Z,1.69
2024-02-18T02:54:24.612Z,1.64
2024-02-18T02:56:53.926Z,1.61
2024-02-18T02:59:22.869Z,1.69
2024-02-18T03:01:53.587Z,1.77
2024-02-18T03:04:22.708Z,1.48
2024-02-18T03:06:52.027Z,1.49
2024-02-18T03:09:21.107Z,1.50
2024-02-18T03:11:50.291Z,1.51
2024-02-18T03:14:19.381Z,1.50
2024-02-18T03:16:48.366Z,1.50
2024-02-18T03:19:19.380Z,1.71
2024-02-18T03:21:48.586Z,1.83
2024-02-18T03:24:17.657Z,1.62
2024-02-18T03:26:46.701Z,1.25
2024-02-18T03:29:15.707Z,1.24
2024-02-18T03:31:44.881Z,0.60
2024-02-18T03:34:13.943Z,0.85
2024-02-18T03:36:45.217Z,1.13
2024-02-18T03:39:14.162Z,1.25
2024-02-18T03:41:43.200Z,1.10
2024-02-18T03:44:12.091Z,0.78
2024-02-18T03:46:41.097Z,1.17
2024-02-18T03:49:10.226Z,1.34
2024-02-18T03:51:39.198Z,1.23
2024-02-18T03:54:09.668Z,1.35
2024-02-18T03:56:38.648Z,1.48
2024-02-18T03:59:09.803Z,1.39
2024-02-18T04:01:39.349Z,0.99
2024-02-18T04:04:08.651Z,1.04
2024-02-18T04:06:37.744Z,1.15
2024-02-18T04:09:06.874Z,1.07
2024-02-18T04:11:37.498Z,1.09
2024-02-18T04:14:06.898Z,0.92
2024-02-18T04:16:35.939Z,0.85
2024-02-18T04:19:05.226Z,1.11
2024-02-18T04:21:34.432Z,1.54
2024-02-18T04:24:04.326Z,1.40
2024-02-18T04:26:33.581Z,1.49
2024-02-18T04:29:03.951Z,1.07
2024-02-18T04:31:32.884Z,1.26
2024-02-18T04:34:01.847Z,1.27
2024-02-18T04:36:30.821Z,0.84
2024-02-18T04:38:59.736Z,0.87
2024-02-18T04:41:28.646Z,0.92
2024-02-18T04:43:57.733Z,0.61
2024-02-18T04:46:28.121Z,0.58
2024-02-18T04:48:57.683Z,0.78
2024-02-18T04:51:27.267Z,0.75
2024-02-18T04:53:56.681Z,1.04
2024-02-18T04:56:25.572Z,1.08
2024-02-18T04:58:54.463Z,1.22
2024-02-18T05:01:23.586Z,1.26
2024-02-18T05:03:54.106Z,1.12
2024-02-18T05:06:23.138Z,1.26
2024-02-18T05:08:52.163Z,1.50
2024-02-18T05:11:21.195Z,1.40
2024-02-18T05:13:51.336Z,1.37
2024-02-18T05:16:20.353Z,1.29
2024-02-18T05:18:50.318Z,1.48
2024-02-18T05:21:20.996Z,1.72
2024-02-18T05:23:51.598Z,1.64
2024-02-18T05:26:20.641Z,1.73
2024-02-18T05:28:49.585Z,1.80
2024-02-18T05:31:24.273Z,2.06
2024-02-18T05:33:54.649Z,2.02
2024-02-18T05:36:25.554Z,1.99
2024-02-18T05:38:54.668Z,2.25
2024-02-18T05:41:23.620Z,2.53
2024-02-18T05:43:52.660Z,2.57
2024-02-18T05:46:21.583Z,2.55
2024-02-18T05:48:50.655Z,2.58
2024-02-18T05:51:19.760Z,2.57
2024-02-18T05:53:50.228Z,2.56
2024-02-18T05:56:19.303Z,2.64
2024-02-18T05:58:48.434Z,2.00
2024-02-18T06:01:18.062Z,2.36
2024-02-18T06:03:47.346Z,2.57
2024-02-18T06:06:16.913Z,2.67
2024-02-18T06:08:46.098Z,3.08
2024-02-18T06:11:20.304Z,2.76
2024-02-18T06:13:49.836Z,3.12
2024-02-18T06:16:19.320Z,3.05
2024-02-18T06:18:48.480Z,3.37
2024-02-18T06:21:24.208Z,3.83
2024-02-18T06:23:57.320Z,3.97
2024-02-18T06:26:28.682Z,4.19
2024-02-18T06:28:57.856Z,4.09
2024-02-18T06:31:26.963Z,4.58
2024-02-18T06:33:56.187Z,5.36
2024-02-18T06:36:26.426Z,5.83
2024-02-18T06:38:55.541Z,5.31
2024-02-18T06:41:24.519Z,5.87
2024-02-18T06:43:55.228Z,6.18
2024-02-18T06:46:30.169Z,5.47
2024-02-18T06:48:59.208Z,5.38
2024-02-18T06:51:28.268Z,6.31
2024-02-18T06:53:57.336Z,7.14
2024-02-18T06:56:26.246Z,7.67
2024-02-18T06:59:01.552Z,7.46
2024-02-18T07:01:36.707Z,6.26
2024-02-18T07:04:06.083Z,5.80
2024-02-18T07:06:35.319Z,5.78
2024-02-18T07:09:04.928Z,5.38
2024-02-18T07:11:34.412Z,5.32
2024-02-18T07:14:04.844Z,5.00
2024-02-18T07:16:34.363Z,5.53
2024-02-18T07:19:03.572Z,6.15
2024-02-18T07:21:33.628Z,6.30
2024-02-18T07:24:02.760Z,6.48
2024-02-18T07:26:31.767Z,6.65
2024-02-18T07:29:01.564Z,6.09
2024-02-18T07:31:32.828Z,5.93
2024-02-18T07:34:02.241Z,6.41
2024-02-18T07:36:31.469Z,6.44
2024-02-18T07:39:00.429Z,6.56
2024-02-18T07:41:29.442Z,6.59
2024-02-18T07:43:58.468Z,7.10
2024-02-18T07:46:27.722Z,6.90
2024-02-18T07:48:58.167Z,7.12
2024-02-18T07:51:29.212Z,7.05
2024-02-18T07:53:58.252Z,6.66
2024-02-18T07:56:27.809Z,6.37
2024-02-18T07:58:56.813Z,6.30
2024-02-18T08:01:25.995Z,6.60
2024-02-18T08:03:55.220Z,6.07
2024-02-18T08:06:27.243Z,6.60
2024-02-18T08:08:56.370Z,6.35
2024-02-18T08:11:25.379Z,6.56
2024-02-18T08:13:55.025Z,6.59
2024-02-18T08:16:28.291Z,6.74
2024-02-18T08:18:57.569Z,6.07
2024-02-18T08:21:28.862Z,6.69
2024-02-18T08:23:57.936Z,6.76
2024-02-18T08:26:28.636Z,6.85
2024-02-18T08:28:58.837Z,6.96
2024-02-18T08:31:27.747Z,7.34
2024-02-18T08:33:58.253Z,7.49
2024-02-18T08:36:28.744Z,7.77
2024-02-18T08:38:57.972Z,7.27
2024-02-18T08:41:27.632Z,7.32
2024-02-18T08:43:56.678Z,7.06
2024-02-18T08:46:25.788Z,6.75
2024-02-18T08:48:56.232Z,6.59
2024-02-18T08:51:25.279Z,6.87
2024-02-18T08:53:55.693Z,6.76
2024-02-18T08:56:24.621Z,7.14
2024-02-18T08:58:53.751Z,6.95
2024-02-18T09:01:22.911Z,7.08
2024-02-18T09:03:52.078Z,7.36
2024-02-18T09:06:21.233Z,7.31
2024-02-18T09:08:50.197Z,7.28
2024-02-18T09:11:20.525Z,6.84
2024-02-18T09:13:49.601Z,7.16
2024-02-18T09:16:18.644Z,7.15
2024-02-18T09:18:48.100Z,7.12
2024-02-18T09:21:17.148Z,7.17
2024-02-18T09:23:46.203Z,7.13
2024-02-18T09:26:15.186Z,7.10
2024-02-18T09:28:45.613Z,7.03
2024-02-18T09:31:15.570Z,7.02
2024-02-18T09:33:44.881Z,7.08
2024-02-18T09:36:13.925Z,6.94
2024-02-18T09:38:42.906Z,6.96
2024-02-18T09:41:18.801Z,6.81
2024-02-18T09:43:51.105Z,6.75
2024-02-18T09:46:22.346Z,6.72
2024-02-18T09:48:51.730Z,6.90
2024-02-18T09:51:21.882Z,7.64
2024-02-18T09:53:53.172Z,8.53
2024-02-18T09:56:22.073Z,8.52
2024-02-18T09:58:52.415Z,7.82
2024-02-18T10:01:23.381Z,7.87
2024-02-18T10:03:52.883Z,7.93
2024-02-18T10:06:22.448Z,8.24
2024-02-18T10:08:56.460Z,8.22
2024-02-18T10:11:25.770Z,7.80
2024-02-18T10:13:59.433Z,7.68
2024-02-18T10:16:28.478Z,7.86
2024-02-18T10:18:57.661Z,8.01
2024-02-18T10:21:27.740Z,7.91
2024-02-18T10:23:56.673Z,7.69
2024-02-18T10:26:25.754Z,7.80
2024-02-18T10:28:55.262Z,8.28
2024-02-18T10:31:25.757Z,8.44
2024-02-18T10:33:54.852Z,8.14
2024-02-18T10:36:27.575Z,8.05
2024-02-18T10:39:02.008Z,8.81
2024-02-18T10:41:35.221Z,9.05
2024-02-18T10:44:11.756Z,8.54
2024-02-18T10:46:43.924Z,8.21
2024-02-18T10:49:20.108Z,8.64
2024-02-18T10:51:52.658Z,8.59
2024-02-18T10:54:29.879Z,8.93
2024-02-18T10:57:01.648Z,8.54
2024-02-18T10:59:38.203Z,8.69
2024-02-18T11:02:15.804Z,8.65
2024-02-18T11:04:46.751Z,8.59
2024-02-18T11:07:17.592Z,8.63
2024-02-18T11:09:48.041Z,9.04
2024-02-18T11:12:19.029Z,8.80
2024-02-18T11:14:49.849Z,8.64
2024-02-18T11:17:20.856Z,8.91
2024-02-18T11:19:50.766Z,9.37
2024-02-18T11:22:20.761Z,9.18
2024-02-18T11:24:52.349Z,8.84
2024-02-18T11:27:22.081Z,8.92
2024-02-18T11:29:53.017Z,8.93
2024-02-18T11:32:23.572Z,8.90
2024-02-18T11:34:52.779Z,9.21
2024-02-18T11:37:32.389Z,9.03
2024-02-18T11:40:10.550Z,9.14
2024-02-18T11:42:42.918Z,9.53
2024-02-18T11:45:13.698Z,9.47
2024-02-18T11:47:48.437Z,9.72
2024-02-18T11:50:19.232Z,10.09
2024-02-18T11:52:49.755Z,10.24
2024-02-18T11:55:19.834Z,10.43
2024-02-18T11:57:49.429Z,10.88
2024-02-18T12:00:20.678Z,10.70
2024-02-18T12:02:52.725Z,10.11
2024-02-18T12:05:24.086Z,10.13
2024-02-18T12:07:55.456Z,9.88
2024-02-18T12:10:24.872Z,10.05
2024-02-18T12:12:54.024Z,10.62
2024-02-18T12:15:24.544Z,10.33
2024-02-18T12:17:55.751Z,10.29
2024-02-18T12:20:25.655Z,10.43
2024-02-18T12:22:57.606Z,10.10
2024-02-18T12:25:26.664Z,10.37
2024-02-18T12:27:55.687Z,10.89
2024-02-18T12:30:26.392Z,10.26
2024-02-18T12:33:00.713Z,10.09
2024-02-18T12:35:30.469Z,9.90
2024-02-18T12:38:01.756Z,10.07
2024-02-18T12:40:31.659Z,9.97
2024-02-18T12:43:26.222Z,9.97
2024-02-18T12:45:55.111Z,10.02
2024-02-18T12:48:31.270Z,9.94
2024-02-18T12:51:12.241Z,10.10
2024-02-18T12:53:42.511Z,10.10
2024-02-18T12:56:13.299Z,9.67
2024-02-18T12:58:43.437Z,10.06
2024-02-18T13:01:12.838Z,9.98
2024-02-18T13:03:47.482Z,9.87
2024-02-18T13:06:18.660Z,10.02
2024-02-18T13:08:47.696Z,10.49
2024-02-18T13:11:18.109Z,10.89
2024-02-18T13:13:47.734Z,11.22
2024-02-18T13:16:16.831Z,11.37
2024-02-18T13:18:47.425Z,11.35
2024-02-18T13:21:17.547Z,11.47
2024-02-18T13:23:46.555Z,11.29
2024-02-18T13:26:15.666Z,11.12
2024-02-18T13:28:44.785Z,11.83
2024-02-18T13:31:16.165Z,12.10
2024-02-18T13:33:45.283Z,12.00
2024-02-18T13:36:18.251Z,12.19
2024-02-18T13:38:48.611Z,12.04
2024-02-18T13:41:17.496Z,12.07
2024-02-18T13:43:46.530Z,11.82
2024-02-18T13:46:15.767Z,11.73
2024-02-18T13:48:45.015Z,11.41
2024-02-18T13:51:15.625Z,11.15
2024-02-18T13:53:45.620Z,11.15
2024-02-18T13:56:15.671Z,11.25
2024-02-18T13:58:44.674Z,11.09
2024-02-18T14:01:13.894Z,11.50
2024-02-18T14:03:45.787Z,11.64
2024-02-18T14:06:16.311Z,11.84
2024-02-18T14:08:45.378Z,12.00
2024-02-18T14:11:14.378Z,11.97
2024-02-18T14:13:43.325Z,11.91
2024-02-18T14:16:12.235Z,11.94
2024-02-18T14:18:41.282Z,12.00
2024-02-18T14:21:10.297Z,11.92
2024-02-18T14:23:40.622Z,11.81
2024-02-18T14:26:09.650Z,11.34
2024-02-18T14:28:38.581Z,11.35
2024-02-18T14:31:07.664Z,11.33
2024-02-18T14:33:36.991Z,11.16
2024-02-18T14:36:07.310Z,11.25
2024-02-18T14:38:36.263Z,11.13
2024-02-18T14:41:07.052Z,10.89
2024-02-18T14:43:36.061Z,11.20
2024-02-18T14:46:05.663Z,10.95
2024-02-18T14:48:34.790Z,10.81
2024-02-18T14:51:04.611Z,10.65
2024-02-18T14:53:33.613Z,10.83
2024-02-18T14:56:02.835Z,10.53
2024-02-18T14:58:33.213Z,10.71
2024-02-18T15:01:02.328Z,10.29
2024-02-18T15:03:31.432Z,10.31
2024-02-18T15:05:59.808Z,10.24
2024-02-18T15:08:29.225Z,10.46
2024-02-18T15:10:58.269Z,10.03
2024-02-18T15:13:27.781Z,9.68
2024-02-18T15:15:58.315Z,9.50
2024-02-18T15:18:27.436Z,9.53
2024-02-18T15:20:57.107Z,9.81
2024-02-18T15:23:26.222Z,9.39
2024-02-18T15:25:55.195Z,9.55
2024-02-18T15:28:24.085Z,9.65
2024-02-18T15:30:53.159Z,10.05
2024-02-18T15:33:23.637Z,10.33
2024-02-18T15:35:53.053Z,10.53
2024-02-18T15:38:22.229Z,10.07
2024-02-18T15:40:51.534Z,9.79
2024-02-18T15:43:20.573Z,9.75
2024-02-18T15:45:49.626Z,9.55
2024-02-18T15:48:19.213Z,9.27
2024-02-18T15:50:49.732Z,9.08
2024-02-18T15:53:18.761Z,8.84
2024-02-18T15:55:54.054Z,8.88
2024-02-18T15:58:30.940Z,8.57
2024-02-18T16:01:01.870Z,8.67
2024-02-18T16:03:31.700Z,8.37
2024-02-18T16:06:02.116Z,8.52
2024-02-18T16:08:38.412Z,8.55
2024-02-18T16:11:09.356Z,8.49
2024-02-18T16:13:41.735Z,8.26
2024-02-18T16:16:11.223Z,8.55
2024-02-18T16:18:42.532Z,8.57
2024-02-18T16:21:13.529Z,8.44
2024-02-18T16:23:48.002Z,8.47
2024-02-18T16:26:22.613Z,8.49
2024-02-18T16:28:51.618Z,8.08
2024-02-18T16:31:21.130Z,8.10
2024-02-18T16:33:50.448Z,8.16
2024-02-18T16:36:21.113Z,8.60
2024-02-18T16:38:50.492Z,8.71
2024-02-18T16:41:19.549Z,8.53
2024-02-18T16:43:48.515Z,8.72
2024-02-18T16:46:17.490Z,9.04
2024-02-18T16:48:46.580Z,9.11
2024-02-18T16:51:25.186Z,9.38
2024-02-18T16:53:54.199Z,9.10
2024-02-18T16:56:23.055Z,8.99
2024-02-18T16:58:51.962Z,8.71
2024-02-18T17:01:21.660Z,8.61
2024-02-18T17:03:51.186Z,8.64
2024-02-18T17:06:20.666Z,8.81
2024-02-18T17:08:51.139Z,9.12
2024-02-18T17:11:21.233Z,9.54
2024-02-18T17:13:50.383Z,9.16
2024-02-18T17:16:19.341Z,9.23
2024-02-18T17:18:49.931Z,9.26
2024-02-18T17:21:19.717Z,9.38
2024-02-18T17:23:51.324Z,9.38
2024-02-18T17:26:20.400Z,9.38
2024-02-18T17:28:49.414Z,9.16
2024-02-18T17:31:18.510Z,9.27
2024-02-18T17:33:47.964Z,9.36
2024-02-18T17:36:17.127Z,9.31
2024-02-18T17:38:46.190Z,9.26
2024-02-18T17:41:16.556Z,9.18
2024-02-18T17:43:45.600Z,9.19
2024-02-18T17:46:18.325Z,9.05
2024-02-18T17:48:47.506Z,9.02
2024-02-18T17:51:16.658Z,9.12
2024-02-18T17:53:45.632Z,9.12
2024-02-18T17:56:16.191Z,9.03
2024-02-18T17:58:45.187Z,9.12
2024-02-18T18:01:14.228Z,9.06
2024-02-18T18:03:43.420Z,9.10
2024-02-18T18:06:12.627Z,8.92
2024-02-18T18:08:41.797Z,8.80
2024-02-18T18:11:11.302Z,8.80
2024-02-18T18:13:41.704Z,8.78
2024-02-18T18:16:10.847Z,8.77
2024-02-18T18:18:40.151Z,8.73
2024-02-18T18:21:10.959Z,8.73
2024-02-18T18:23:40.155Z,8.14
2024-02-18T18:26:09.289Z,8.15
2024-02-18T18:28:38.230Z,8.53
2024-02-18T18:31:08.540Z,8.66
2024-02-18T18:33:37.689Z,8.79
2024-02-18T18:36:08.898Z,8.79
2024-02-18T18:38:37.994Z,9.00
2024-02-18T18:41:07.260Z,8.97
2024-02-18T18:43:36.208Z,8.96
2024-02-18T18:46:05.394Z,8.70
2024-02-18T18:48:35.996Z,8.13
2024-02-18T18:51:05.539Z,8.25
2024-02-18T18:53:35.660Z,8.51
2024-02-18T18:56:04.642Z,8.61
2024-02-18T18:58:34.499Z,8.72
2024-02-18T19:03:33.443Z,8.77
2024-02-18T19:06:03.830Z,8.54
2024-02-18T19:08:32.832Z,8.66
2024-02-18T19:11:02.665Z,8.52
2024-02-18T19:13:42.297Z,8.42
2024-02-18T19:16:18.264Z,8.48
2024-02-18T19:18:48.970Z,8.35
2024-02-18T19:21:19.793Z,8.36
2024-02-18T19:23:48.809Z,8.50
2024-02-18T19:26:17.798Z,8.79
2024-02-18T19:28:47.204Z,8.75
2024-02-18T19:31:18.392Z,8.38
2024-02-18T19:33:48.106Z,8.22
2024-02-18T19:36:17.317Z,8.41
2024-02-18T19:38:48.270Z,8.36
2024-02-18T19:41:17.615Z,8.49
2024-02-18T19:43:46.493Z,7.89
2024-02-18T19:46:16.062Z,7.78
2024-02-18T19:48:45.201Z,7.80
2024-02-18T19:51:14.332Z,7.85
2024-02-18T19:53:43.636Z,7.93
2024-02-18T19:56:14.094Z,7.86
2024-02-18T19:58:43.000Z,7.99
2024-02-18T20:01:13.524Z,7.81
2024-02-18T20:03:42.623Z,7.74
2024-02-18T20:06:11.711Z,8.06
2024-02-18T20:08:41.676Z,8.31
2024-02-18T20:11:10.739Z,8.61
2024-02-18T20:13:41.441Z,8.52
2024-02-18T20:16:10.858Z,8.60
2024-02-18T20:18:40.042Z,8.56
2024-02-18T20:21:09.083Z,8.27
2024-02-18T20:23:38.821Z,7.89
2024-02-18T20:26:17.770Z,7.71
2024-02-18T20:28:48.567Z,7.71
2024-02-18T20:31:19.179Z,7.83
2024-02-18T20:33:49.328Z,7.91
2024-02-18T20:36:18.766Z,7.92
2024-02-18T20:38:47.958Z,7.82
2024-02-18T20:41:16.843Z,7.78
2024-02-18T20:43:47.219Z,7.73
2024-02-18T20:46:19.759Z,7.83
2024-02-18T20:48:49.477Z,7.83
2024-02-18T20:51:18.959Z,8.24
2024-02-18T20:53:48.066Z,8.23
2024-02-18T20:56:17.138Z,8.30
2024-02-18T20:58:47.581Z,8.23
2024-02-18T21:01:16.736Z,8.18
2024-02-18T21:03:45.860Z,7.94
2024-02-18T21:06:16.477Z,7.86
2024-02-18T21:08:45.592Z,8.01
2024-02-18T21:11:14.544Z,8.09
2024-02-18T21:13:43.567Z,8.00
2024-02-18T21:16:13.982Z,8.09
2024-02-18T21:18:43.119Z,7.44
2024-02-18T21:21:12.055Z,7.43
2024-02-18T21:23:40.923Z,7.09
2024-02-18T21:26:10.039Z,6.85
2024-02-18T21:28:42.652Z,7.05
2024-02-18T21:31:15.091Z,7.22
2024-02-18T21:33:44.144Z,7.43
2024-02-18T21:36:16.377Z,7.46
2024-02-18T21:38:45.533Z,7.50
2024-02-18T21:41:14.543Z,7.61
2024-02-18T21:43:43.591Z,7.50
2024-02-18T21:46:12.983Z,7.22
2024-02-18T21:48:43.918Z,7.13
2024-02-18T21:51:14.198Z,7.35
2024-02-18T21:53:45.278Z,7.13
2024-02-18T21:56:14.794Z,6.73
2024-02-18T21:58:43.931Z,6.80
2024-02-18T22:01:14.059Z,6.75
2024-02-18T22:03:44.771Z,6.62
2024-02-18T22:06:13.772Z,6.62
2024-02-18T22:08:42.879Z,6.48
2024-02-18T22:11:11.946Z,6.61
2024-02-18T22:13:40.895Z,6.78
2024-02-18T22:16:10.130Z,6.94
2024-02-18T22:18:40.283Z,6.81
2024-02-18T22:21:10.729Z,6.56
2024-02-18T22:23:39.622Z,6.55
2024-02-18T22:26:08.885Z,6.30
2024-02-18T22:28:37.908Z,6.31
2024-02-18T22:31:06.999Z,6.18
2024-02-18T22:33:36.508Z,6.25
2024-02-18T22:36:06.130Z,6.21
2024-02-18T22:38:36.532Z,6.01
2024-02-18T22:41:05.656Z,6.05
2024-02-18T22:43:34.587Z,6.14
2024-02-18T22:46:03.662Z,6.02
2024-02-18T22:48:33.032Z,5.97
2024-02-18T22:51:02.220Z,5.92
2024-02-18T22:53:31.212Z,6.10
2024-02-18T22:56:01.769Z,6.24
2024-02-18T22:58:30.836Z,6.18
2024-02-18T23:00:59.900Z,6.28
2024-02-18T23:03:28.978Z,6.17
2024-02-18T23:05:58.057Z,6.22
2024-02-18T23:08:27.099Z,6.26
2024-02-18T23:10:56.582Z,6.24
2024-02-18T23:13:27.129Z,5.93
2024-02-18T23:15:56.174Z,5.95
2024-02-18T23:18:25.333Z,5.94
2024-02-18T23:20:54.598Z,5.61
2024-02-18T23:23:23.504Z,5.80
2024-02-18T23:25:52.345Z,5.57
2024-02-18T23:28:21.522Z,5.72
2024-02-18T23:30:52.030Z,5.71
2024-02-18T23:33:21.356Z,5.56
2024-02-18T23:35:50.440Z,5.80
2024-02-18T23:38:20.346Z,5.75
2024-02-18T23:40:49.369Z,5.62
2024-02-18T23:43:22.740Z,5.57
2024-02-18T23:45:53.175Z,5.27
2024-02-18T23:48:22.220Z,5.51
2024-02-18T23:50:51.444Z,5.57
2024-02-18T23:53:20.400Z,5.30
2024-02-18T23:55:49.320Z,5.37
2024-02-18T23:58:18.332Z,5.33
